createdAt,value
2018-05-08T00:02:23.899Z,6.20
2018-05-08T00:04:51.541Z,5.87
2018-05-08T00:07:20.025Z,5.37
2018-05-08T00:09:47.731Z,5.37
2018-05-08T00:12:16.159Z,6.70
2018-05-08T00:14:43.896Z,6.23
2018-05-08T00:17:11.547Z,8.20
2018-05-08T00:19:40.015Z,7.23
2018-05-08T00:22:07.700Z,7.50
2018-05-08T00:24:35.408Z,7.47
2018-05-08T00:27:03.055Z,7.70
2018-05-08T00:29:30.763Z,5.33
2018-05-08T00:31:58.459Z,8.73
2018-05-08T00:34:26.147Z,5.67
2018-05-08T00:36:53.852Z,9.37
2018-05-08T00:39:22.331Z,6.83
2018-05-08T00:41:50.796Z,6.53
2018-05-08T00:44:18.515Z,6.30
2018-05-08T00:46:46.172Z,5.83
2018-05-08T00:49:13.878Z,5.30
2018-05-08T00:51:41.597Z,5.03
2018-05-08T00:54:09.269Z,5.27
2018-05-08T00:56:36.979Z,5.73
2018-05-08T00:59:04.634Z,5.10
2018-05-08T01:01:32.355Z,8.33
2018-05-08T01:04:00.008Z,6.10
2018-05-08T01:06:27.724Z,7.07
2018-05-08T01:08:55.375Z,7.90
2018-05-08T01:11:23.090Z,6.67
2018-05-08T01:13:50.750Z,7.27
2018-05-08T01:16:18.452Z,5.37
2018-05-08T01:18:46.186Z,5.90
2018-05-08T01:21:13.840Z,5.27
2018-05-08T01:23:41.556Z,8.07
2018-05-08T01:26:09.207Z,7.40
2018-05-08T01:28:36.927Z,7.03
2018-05-08T01:31:04.583Z,5.80
2018-05-08T01:33:32.387Z,5.70
2018-05-08T01:36:00.042Z,5.07
2018-05-08T01:38:27.776Z,8.37
2018-05-08T01:40:55.425Z,5.40
2018-05-08T01:43:23.886Z,6.60
2018-05-08T01:45:51.594Z,4.83
2018-05-08T01:48:20.007Z,6.77
2018-05-08T01:50:47.760Z,4.97
2018-05-08T01:53:15.479Z,5.53
2018-05-08T01:55:43.131Z,6.07
2018-05-08T01:58:11.599Z,9.53
2018-05-08T02:00:39.311Z,6.00
2018-05-08T02:03:06.994Z,7.07
2018-05-08T02:05:34.714Z,6.80
2018-05-08T02:08:02.423Z,7.30
2018-05-08T02:10:30.075Z,7.43
2018-05-08T02:12:57.765Z,7.10
2018-05-08T02:15:25.420Z,5.77
2018-05-08T02:17:53.119Z,5.83
2018-05-08T02:20:21.619Z,6.03
2018-05-08T02:22:49.275Z,5.47
2018-05-08T02:25:16.932Z,6.63
2018-05-08T02:27:44.647Z,5.60
2018-05-08T02:30:12.303Z,6.83
2018-05-08T02:32:40.032Z,7.70
2018-05-08T02:35:07.701Z,8.37
2018-05-08T02:37:35.411Z,7.40
2018-05-08T02:40:03.058Z,5.97
2018-05-08T02:42:30.708Z,6.97
2018-05-08T02:44:58.401Z,7.13
2018-05-08T02:47:26.876Z,6.67
2018-05-08T02:49:54.540Z,4.93
2018-05-08T02:52:23.020Z,6.10
2018-05-08T02:54:51.492Z,6.37
2018-05-08T02:57:19.157Z,6.23
2018-05-08T02:59:46.880Z,5.40
2018-05-08T03:02:14.591Z,7.07
2018-05-08T03:04:43.061Z,6.60
2018-05-08T03:07:11.544Z,6.13
2018-05-08T03:09:39.247Z,8.00
2018-05-08T03:12:06.905Z,4.83
2018-05-08T03:14:34.623Z,7.10
2018-05-08T03:17:02.296Z,8.67
2018-05-08T03:19:29.958Z,6.27
2018-05-08T03:21:57.650Z,8.50
2018-05-08T03:24:25.298Z,6.90
2018-05-08T03:26:53.763Z,6.80
2018-05-08T03:29:21.461Z,6.67
2018-05-08T03:31:49.163Z,7.00
2018-05-08T03:34:16.832Z,6.30
2018-05-08T03:36:44.539Z,5.53
2018-05-08T03:39:12.195Z,6.37
2018-05-08T03:41:40.614Z,6.87
2018-05-08T03:44:08.308Z,9.27
2018-05-08T03:46:35.963Z,6.87
2018-05-08T03:49:03.651Z,6.40
2018-05-08T03:51:32.084Z,7.17
2018-05-08T03:53:59.771Z,7.83
2018-05-08T03:56:27.468Z,7.67
2018-05-08T03:58:55.115Z,7.00
2018-05-08T04:01:35.277Z,8.57
2018-05-08T04:04:15.724Z,9.43
2018-05-08T04:06:56.925Z,8.47
2018-05-08T04:09:24.624Z,6.60
2018-05-08T04:11:52.286Z,8.00
2018-05-08T04:14:19.984Z,6.87
2018-05-08T04:16:47.687Z,7.83
2018-05-08T04:19:15.343Z,7.27
2018-05-08T04:21:43.034Z,6.63
2018-05-08T04:24:10.693Z,6.77
2018-05-08T04:26:38.399Z,10.37
2018-05-08T04:29:06.823Z,6.13
2018-05-08T04:31:34.472Z,7.67
2018-05-08T04:34:02.180Z,8.23
2018-05-08T04:36:29.911Z,5.97
2018-05-08T04:38:58.338Z,7.63
2018-05-08T04:41:26.035Z,6.23
2018-05-08T04:43:53.697Z,7.33
2018-05-08T04:46:21.415Z,7.57
2018-05-08T04:48:49.104Z,12.07
2018-05-08T04:51:17.531Z,9.23
2018-05-08T04:53:45.263Z,12.90
2018-05-08T04:56:12.915Z,10.90
2018-05-08T04:58:41.391Z,21.67
2018-05-08T05:01:09.827Z,21.53
2018-05-08T05:03:37.538Z,29.63
2018-05-08T05:06:05.965Z,24.93
2018-05-08T05:08:33.627Z,26.40
2018-05-08T05:11:01.369Z,26.00
2018-05-08T05:13:29.058Z,20.17
2018-05-08T05:15:56.766Z,18.13
2018-05-08T05:18:25.189Z,12.00
2018-05-08T05:20:52.888Z,19.87
2018-05-08T05:23:20.536Z,13.27
2018-05-08T05:25:48.244Z,10.33
2018-05-08T05:28:15.926Z,9.70
2018-05-08T05:30:43.583Z,10.73
2018-05-08T05:33:11.276Z,7.53
2018-05-08T05:35:38.935Z,7.23
2018-05-08T05:38:06.623Z,8.73
2018-05-08T05:40:34.290Z,9.40
2018-05-08T05:43:02.763Z,9.07
2018-05-08T05:45:30.421Z,10.83
2018-05-08T05:47:58.119Z,7.80
2018-05-08T05:50:25.778Z,11.80
2018-05-08T05:52:53.441Z,13.07
2018-05-08T05:55:21.131Z,9.43
2018-05-08T05:57:48.787Z,10.47
2018-05-08T06:00:16.477Z,10.90
2018-05-08T06:02:44.123Z,6.23
2018-05-08T06:05:11.823Z,11.70
2018-05-08T06:07:40.275Z,7.30
2018-05-08T06:10:07.968Z,10.47
2018-05-08T06:12:35.672Z,7.93
2018-05-08T06:15:03.325Z,7.40
2018-05-08T06:17:31.061Z,6.67
2018-05-08T06:19:59.479Z,10.50
2018-05-08T06:22:27.138Z,11.30
2018-05-08T06:24:54.824Z,7.23
2018-05-08T06:27:22.479Z,8.10
2018-05-08T06:29:50.175Z,7.83
2018-05-08T06:32:17.828Z,10.43
2018-05-08T06:34:45.544Z,7.27
2018-05-08T06:37:13.247Z,7.53
2018-05-08T06:39:42.396Z,9.17
2018-05-08T06:42:10.070Z,8.67
2018-05-08T06:44:37.765Z,7.13
2018-05-08T06:47:05.435Z,8.87
2018-05-08T06:49:33.933Z,11.50
2018-05-08T06:52:02.392Z,7.53
2018-05-08T06:54:30.048Z,8.83
2018-05-08T06:56:59.468Z,9.77
2018-05-08T06:59:29.223Z,8.17
2018-05-08T07:01:57.122Z,6.50
2018-05-08T07:04:24.783Z,9.60
2018-05-08T07:06:52.480Z,11.00
2018-05-08T07:09:20.911Z,10.70
2018-05-08T07:11:49.387Z,7.07
2018-05-08T07:14:17.066Z,7.03
2018-05-08T07:16:44.781Z,8.17
2018-05-08T07:19:13.267Z,7.37
2018-05-08T07:21:40.965Z,12.40
2018-05-08T07:24:08.629Z,6.93
2018-05-08T07:26:36.337Z,9.60
2018-05-08T07:29:04.812Z,9.93
2018-05-08T07:31:33.235Z,7.67
2018-05-08T07:34:00.927Z,7.80
2018-05-08T07:36:28.612Z,6.80
2018-05-08T07:38:57.076Z,5.03
2018-05-08T07:41:24.721Z,5.00
2018-05-08T07:43:52.439Z,7.20
2018-05-08T07:46:20.858Z,9.97
2018-05-08T07:48:48.514Z,7.80
2018-05-08T07:51:16.213Z,9.13
2018-05-08T07:53:43.872Z,11.93
2018-05-08T07:56:11.561Z,6.97
2018-05-08T07:58:40.060Z,4.60
2018-05-08T08:01:07.752Z,9.80
2018-05-08T08:03:35.583Z,5.87
2018-05-08T08:06:03.297Z,4.53
2018-05-08T08:08:30.961Z,5.17
2018-05-08T08:10:58.910Z,6.07
2018-05-08T08:13:26.576Z,3.83
2018-05-08T08:15:54.233Z,5.40
2018-05-08T08:18:21.926Z,5.27
2018-05-08T08:20:49.635Z,5.83
2018-05-08T08:23:17.337Z,3.23
2018-05-08T08:25:44.999Z,7.13
2018-05-08T08:28:12.750Z,6.10
2018-05-08T08:30:40.485Z,4.53
2018-05-08T08:33:08.175Z,3.93
2018-05-08T08:35:35.958Z,8.40
2018-05-08T08:38:03.572Z,5.23
2018-05-08T08:40:31.279Z,4.20
2018-05-08T08:42:59.022Z,3.55
2018-05-08T08:45:26.708Z,4.75
2018-05-08T08:47:54.415Z,8.07
2018-05-08T08:50:22.088Z,4.53
2018-05-08T08:52:49.814Z,4.43
2018-05-08T08:55:18.239Z,2.50
2018-05-08T08:57:45.944Z,4.62
2018-05-08T09:00:13.696Z,6.90
2018-05-08T09:02:41.407Z,1.77
2018-05-08T09:05:09.108Z,5.82
2018-05-08T09:07:36.759Z,3.12
2018-05-08T09:10:04.551Z,3.58
2018-05-08T09:12:32.267Z,2.10
2018-05-08T09:14:59.967Z,3.90
2018-05-08T09:17:27.624Z,1.60
2018-05-08T09:19:55.319Z,1.92
2018-05-08T09:22:23.750Z,1.83
2018-05-08T09:24:51.454Z,3.97
2018-05-08T09:27:19.163Z,4.37
2018-05-08T09:29:46.823Z,1.58
2018-05-08T09:32:14.515Z,1.33
2018-05-08T09:34:42.172Z,2.05
2018-05-08T09:37:10.635Z,6.53
2018-05-08T09:39:38.339Z,2.25
2018-05-08T09:42:06.039Z,5.35
2018-05-08T09:44:33.705Z,2.60
2018-05-08T09:47:01.437Z,4.45
2018-05-08T09:49:29.871Z,3.63
2018-05-08T09:51:57.526Z,7.30
2018-05-08T09:54:25.245Z,1.60
2018-05-08T09:56:53.667Z,3.40
2018-05-08T09:59:21.362Z,2.97
2018-05-08T10:01:49.120Z,5.97
2018-05-08T10:04:16.781Z,2.87
2018-05-08T10:06:44.503Z,7.70
2018-05-08T10:09:12.159Z,1.67
2018-05-08T10:11:39.918Z,1.43
2018-05-08T10:14:07.584Z,12.67
2018-05-08T10:16:35.239Z,2.23
2018-05-08T10:19:03.700Z,2.83
2018-05-08T10:21:32.127Z,1.60
2018-05-08T10:23:59.837Z,2.50
2018-05-08T10:26:27.487Z,2.77
2018-05-08T10:28:55.140Z,3.07
2018-05-08T10:31:22.833Z,1.50
2018-05-08T10:33:51.255Z,1.37
2018-05-08T10:36:18.955Z,1.40
2018-05-08T10:38:47.531Z,1.73
2018-05-08T10:41:15.232Z,2.10
2018-05-08T10:43:43.654Z,2.07
2018-05-08T10:46:11.359Z,2.23
2018-05-08T10:48:39.023Z,3.37
2018-05-08T10:51:06.681Z,1.80
2018-05-08T10:53:34.400Z,1.93
2018-05-08T10:56:02.196Z,1.37
2018-05-08T10:58:29.851Z,5.67
2018-05-08T11:00:57.503Z,1.30
2018-05-08T11:03:25.198Z,1.70
2018-05-08T11:05:53.603Z,2.47
2018-05-08T11:08:21.291Z,2.73
2018-05-08T11:10:48.939Z,2.80
2018-05-08T11:13:16.639Z,2.17
2018-05-08T11:15:44.356Z,5.63
2018-05-08T11:18:12.407Z,3.23
2018-05-08T11:20:40.871Z,1.67
2018-05-08T11:23:08.527Z,2.33
2018-05-08T11:25:36.233Z,3.10
2018-05-08T11:28:04.946Z,2.37
2018-05-08T11:30:32.611Z,3.00
2018-05-08T11:33:00.310Z,3.23
2018-05-08T11:35:28.739Z,1.83
2018-05-08T11:37:56.447Z,2.03
2018-05-08T11:43:28.193Z,3.40
2018-05-08T11:46:07.912Z,2.93
2018-05-08T11:57:29.313Z,2.93
2018-05-08T11:59:56.996Z,5.90
2018-05-08T12:02:25.488Z,1.97
2018-05-08T12:04:53.173Z,1.60
2018-05-08T12:07:21.655Z,2.83
2018-05-08T12:09:50.377Z,2.23
2018-05-08T12:12:18.064Z,3.73
2018-05-08T12:14:45.869Z,3.10
2018-05-08T12:23:08.914Z,3.17
2018-05-08T12:25:42.016Z,2.03
2018-05-08T12:28:09.720Z,2.63
2018-05-08T12:30:37.486Z,1.90
2018-05-08T12:33:05.151Z,3.83
2018-05-08T12:35:32.870Z,2.20
2018-05-08T12:38:00.780Z,3.33
2018-05-08T12:40:28.543Z,4.67
2018-05-08T12:42:56.239Z,3.43
2018-05-08T12:45:23.961Z,4.23
2018-05-08T12:47:51.680Z,1.80
2018-05-08T12:50:19.422Z,2.33
2018-05-08T12:52:47.107Z,5.53
2018-05-08T12:55:15.574Z,1.67
2018-05-08T12:57:56.907Z,3.77
2018-05-08T13:00:24.584Z,1.93
2018-05-08T13:02:52.298Z,2.77
2018-05-08T13:05:26.285Z,1.70
2018-05-08T13:07:54.015Z,3.43
2018-05-08T13:10:21.743Z,1.73
2018-05-08T13:15:43.294Z,6.00
2018-05-08T13:18:11.065Z,3.13
2018-05-08T13:20:38.746Z,2.40
2018-05-08T13:23:06.399Z,1.57
2018-05-08T13:25:34.943Z,4.33
2018-05-08T13:28:02.648Z,3.37
2018-05-08T13:30:30.365Z,1.63
2018-05-08T13:32:58.024Z,3.03
2018-05-08T13:35:25.726Z,3.83
2018-05-08T13:37:55.184Z,5.13
2018-05-08T13:40:22.891Z,1.58
2018-05-08T13:42:51.372Z,4.85
2018-05-08T13:45:19.881Z,4.05
2018-05-08T13:47:47.547Z,4.50
2018-05-08T13:50:17.516Z,1.87
2018-05-08T13:53:07.351Z,3.45
2018-05-08T13:55:35.395Z,2.03
2018-05-08T13:58:03.824Z,1.10
2018-05-08T14:00:31.589Z,1.52
2018-05-08T14:03:00.068Z,2.97
2018-05-08T14:05:27.724Z,1.58
2018-05-08T14:07:56.196Z,1.83
2018-05-08T14:10:23.904Z,1.65
2018-05-08T14:12:51.656Z,1.35
2018-05-08T14:15:19.335Z,2.72
2018-05-08T14:17:47.760Z,1.60
2018-05-08T14:20:15.472Z,2.80
2018-05-08T14:22:45.303Z,2.53
2018-05-08T14:25:14.568Z,2.65
2018-05-08T14:27:42.245Z,7.45
2018-05-08T14:30:11.459Z,3.45
2018-05-08T14:32:40.938Z,2.15
2018-05-08T14:35:08.705Z,2.30
2018-05-08T14:37:36.460Z,2.92
2018-05-08T14:40:05.947Z,2.28
2018-05-08T14:42:33.710Z,8.30
2018-05-08T14:45:01.434Z,1.40
2018-05-08T14:47:29.207Z,4.95
2018-05-08T14:49:56.917Z,3.37
2018-05-08T14:52:24.664Z,4.10
2018-05-08T14:54:52.430Z,1.92
2018-05-08T14:57:20.923Z,2.92
2018-05-08T14:59:48.681Z,1.98
2018-05-08T15:02:16.388Z,2.33
2018-05-08T15:04:45.433Z,2.45
2018-05-08T15:07:13.268Z,1.40
2018-05-08T15:09:41.005Z,2.20
2018-05-08T15:12:09.437Z,2.92
2018-05-08T15:14:37.168Z,2.42
2018-05-08T15:17:04.904Z,3.42
2018-05-08T15:19:33.360Z,2.62
2018-05-08T15:22:01.044Z,1.98
2018-05-08T15:24:29.524Z,2.05
2018-05-08T15:26:57.977Z,4.05
2018-05-08T15:29:25.753Z,2.45
2018-05-08T15:31:54.575Z,4.80
2018-05-08T15:34:22.374Z,2.05
2018-05-08T15:36:50.148Z,1.80
2018-05-08T15:39:17.853Z,3.03
2018-05-08T15:41:46.393Z,3.22
2018-05-08T15:44:14.171Z,2.33
2018-05-08T15:46:41.940Z,6.15
2018-05-08T15:49:09.743Z,11.12
2018-05-08T15:51:38.267Z,3.15
2018-05-08T15:54:06.056Z,3.85
2018-05-08T15:56:33.845Z,2.25
2018-05-08T15:59:02.342Z,2.47
2018-05-08T16:01:30.110Z,3.10
2018-05-08T16:03:57.972Z,4.12
2018-05-08T16:06:27.706Z,2.30
2018-05-08T16:08:55.459Z,2.23
2018-05-08T16:11:23.248Z,3.17
2018-05-08T16:13:51.016Z,2.45
2018-05-08T16:16:18.789Z,1.90
2018-05-08T16:18:47.277Z,2.45
2018-05-08T16:21:15.012Z,3.42
2018-05-08T16:23:44.544Z,3.35
2018-05-08T16:26:12.585Z,2.90
2018-05-08T16:28:40.341Z,2.07
2018-05-08T16:31:08.224Z,3.20
2018-05-08T16:33:36.000Z,1.80
2018-05-08T16:36:03.753Z,4.20
2018-05-08T16:38:31.495Z,7.63
2018-05-08T16:40:59.296Z,2.90
2018-05-08T16:43:30.869Z,3.00
2018-05-08T16:45:59.455Z,5.17
2018-05-08T16:48:27.290Z,2.50
2018-05-08T16:50:54.971Z,2.77
2018-05-08T16:53:22.866Z,2.27
2018-05-08T16:55:51.857Z,4.00
2018-05-08T16:58:20.121Z,2.77
2018-05-08T17:00:47.956Z,2.17
2018-05-08T17:03:16.526Z,1.77
2018-05-08T17:05:44.293Z,2.83
2018-05-08T17:08:12.059Z,4.60
2018-05-08T17:10:40.745Z,5.70
2018-05-08T17:13:08.784Z,2.80
2018-05-08T17:15:36.734Z,3.57
2018-05-08T17:18:04.462Z,6.63
2018-05-08T17:20:32.193Z,2.93
2018-05-08T17:22:59.981Z,4.73
2018-05-08T17:25:27.816Z,4.07
2018-05-08T17:27:55.495Z,2.20
2018-05-08T17:30:23.171Z,3.63
2018-05-08T17:32:50.932Z,2.20
2018-05-08T17:35:18.708Z,3.47
2018-05-08T17:37:46.446Z,2.33
2018-05-08T17:40:14.192Z,2.60
2018-05-08T17:42:42.077Z,2.40
2018-05-08T17:45:09.875Z,2.63
2018-05-08T17:47:37.673Z,3.20
2018-05-08T17:50:07.769Z,3.13
2018-05-08T17:52:36.323Z,3.20
2018-05-08T17:55:04.079Z,5.27
2018-05-08T17:57:32.925Z,3.83
2018-05-08T18:00:00.637Z,5.57
2018-05-08T18:02:28.354Z,4.00
2018-05-08T18:04:56.038Z,3.50
2018-05-08T18:07:23.760Z,4.53
2018-05-08T18:09:52.304Z,4.33
2018-05-08T18:12:20.408Z,5.43
2018-05-08T18:14:48.179Z,4.40
2018-05-08T18:17:16.660Z,6.47
2018-05-08T18:19:45.095Z,4.10
2018-05-08T18:22:12.808Z,12.33
2018-05-08T18:24:41.248Z,5.07
2018-05-08T18:27:09.020Z,4.80
2018-05-08T18:29:36.672Z,4.20
2018-05-08T18:32:04.371Z,5.53
2018-05-08T18:34:32.081Z,3.03
2018-05-08T18:36:59.858Z,4.20
2018-05-08T18:39:27.517Z,2.20
2018-05-08T18:41:55.250Z,4.10
2018-05-08T18:44:22.922Z,2.90
2018-05-08T18:46:50.576Z,2.60
2018-05-08T18:49:18.350Z,4.47
2018-05-08T18:51:46.805Z,2.37
2018-05-08T18:54:15.271Z,3.93
2018-05-08T18:56:43.832Z,5.87
2018-05-08T18:59:11.633Z,2.67
2018-05-08T19:01:40.062Z,7.77
2018-05-08T19:04:07.798Z,2.63
2018-05-08T19:06:35.523Z,4.80
2018-05-08T19:09:04.726Z,10.03
2018-05-08T19:11:38.893Z,3.57
2018-05-08T19:14:06.557Z,4.90
2018-05-08T19:16:34.275Z,2.67
2018-05-08T19:19:07.613Z,4.83
2018-05-08T19:21:35.332Z,5.77
2018-05-08T19:24:08.819Z,3.20
2018-05-08T19:26:37.408Z,2.77
2018-05-08T19:29:10.938Z,4.53
2018-05-08T19:31:38.762Z,7.73
2018-05-08T19:34:07.240Z,8.53
2018-05-08T19:36:40.810Z,4.80
2018-05-08T19:39:09.596Z,5.33
2018-05-08T19:41:37.821Z,4.33
2018-05-08T19:44:06.899Z,3.47
2018-05-08T19:46:34.816Z,5.30
2018-05-08T19:49:03.442Z,5.80
2018-05-08T19:51:31.201Z,6.07
2018-05-08T19:54:00.306Z,3.87
2018-05-08T19:56:30.213Z,3.50
2018-05-08T19:59:00.234Z,4.53
2018-05-08T20:01:30.855Z,2.70
2018-05-08T20:03:59.711Z,8.40
2018-05-08T20:06:28.891Z,5.60
2018-05-08T20:09:00.479Z,9.27
2018-05-08T20:11:33.286Z,5.30
2018-05-08T20:14:01.303Z,5.40
2018-05-08T20:16:30.019Z,8.17
2018-05-08T20:19:01.008Z,9.43
2018-05-08T20:21:30.128Z,5.60
2018-05-08T20:24:01.861Z,6.60
2018-05-08T20:26:29.827Z,3.63
2018-05-08T20:29:01.002Z,7.73
2018-05-08T20:31:30.045Z,3.20
2018-05-08T20:34:00.105Z,4.23
2018-05-08T20:36:30.128Z,3.43
2018-05-08T20:38:59.053Z,2.50
2018-05-08T20:41:27.108Z,3.10
2018-05-08T20:43:57.511Z,2.80
2018-05-08T20:46:26.184Z,7.77
2018-05-08T20:49:01.864Z,7.87
2018-05-08T20:51:29.787Z,7.80
2018-05-08T20:54:00.434Z,5.67
2018-05-08T20:56:30.384Z,4.47
2018-05-08T20:59:09.171Z,10.67
2018-05-08T21:01:37.675Z,5.90
2018-05-08T21:04:06.959Z,2.27
2018-05-08T21:06:34.729Z,5.23
2018-05-08T21:09:03.005Z,3.10
2018-05-08T21:11:31.046Z,6.07
2018-05-08T21:14:00.027Z,5.17
2018-05-08T21:16:29.909Z,2.97
2018-05-08T21:18:59.003Z,4.47
2018-05-08T21:21:30.351Z,2.63
2018-05-08T21:23:59.518Z,3.90
2018-05-08T21:26:28.726Z,4.37
2018-05-08T21:28:59.979Z,2.70
2018-05-08T21:31:43.332Z,4.33
2018-05-08T21:34:12.562Z,3.50
2018-05-08T21:36:40.367Z,3.93
2018-05-08T21:39:08.197Z,6.53
2018-05-08T21:41:35.918Z,4.93
2018-05-08T21:44:03.802Z,2.60
2018-05-08T21:46:31.560Z,3.73
2018-05-08T21:48:59.615Z,2.10
2018-05-08T21:51:30.097Z,3.40
2018-05-08T21:53:59.478Z,5.57
2018-05-08T21:56:29.388Z,4.37
2018-05-08T21:58:59.659Z,2.97
2018-05-08T22:01:28.643Z,4.10
2018-05-08T22:04:07.459Z,3.03
2018-05-08T22:06:35.296Z,4.80
2018-05-08T22:09:07.183Z,1.87
2018-05-08T22:11:43.038Z,3.07
2018-05-08T22:14:12.372Z,3.77
2018-05-08T22:16:46.060Z,2.43
2018-05-08T22:19:13.848Z,4.33
2018-05-08T22:21:41.613Z,5.20
2018-05-08T22:24:09.592Z,2.77
2018-05-08T22:26:37.704Z,4.27
2018-05-08T22:29:09.406Z,2.47
2018-05-08T22:31:37.525Z,4.77
2018-05-08T22:34:05.928Z,2.23
2018-05-08T22:36:34.098Z,5.43
2018-05-08T22:39:02.333Z,3.93
2018-05-08T22:41:31.956Z,3.57
2018-05-08T22:44:00.217Z,3.37
2018-05-08T22:46:29.750Z,4.57
2018-05-08T22:48:59.966Z,2.83
2018-05-08T22:51:28.986Z,2.40
2018-05-08T22:53:59.090Z,3.80
2018-05-08T22:56:32.068Z,5.20
2018-05-08T22:59:00.158Z,4.40
2018-05-08T23:01:29.559Z,2.77
2018-05-08T23:03:58.751Z,3.83
2018-05-08T23:06:28.345Z,3.70
2018-05-08T23:08:58.243Z,3.07
2018-05-08T23:11:27.972Z,3.63
2018-05-08T23:13:58.006Z,2.73
2018-05-08T23:16:28.103Z,2.70
2018-05-08T23:18:57.576Z,2.80
2018-05-08T23:21:27.915Z,4.87
2018-05-08T23:23:57.760Z,3.17
2018-05-08T23:26:27.551Z,3.43
2018-05-08T23:28:57.799Z,3.87
2018-05-08T23:31:26.922Z,2.93
2018-05-08T23:33:55.323Z,3.00
2018-05-08T23:36:25.248Z,3.50
2018-05-08T23:38:53.752Z,3.83
2018-05-08T23:41:23.908Z,3.10
2018-05-08T23:43:52.993Z,2.80
2018-05-08T23:46:22.284Z,4.00
2018-05-08T23:48:51.068Z,2.90
2018-05-08T23:51:20.170Z,3.20
2018-05-08T23:53:48.745Z,4.87
2018-05-08T23:56:17.309Z,3.30
2018-05-08T23:58:45.011Z,3.50
